Time,TemperatureF,DewpointF,PressureIn,WindDirection,WindDirectionDegrees,WindSpeedMPH,WindSpeedGustMPH,Humidity,HourlyPrecipIn,Conditions,Clouds,dailyrainin,SoftwareType,DateUTC
2014-02-03 00:07:00,12.6,8.7,30.09,SSE,157,1.7,-999.0,84,-99.99,,,0.00,Acu-Link.com,2014-02-03 06:07:00,
2014-02-03 00:22:00,12.6,9.2,30.11,SSE,157,4.2,-999.0,86,-99.99,,,0.00,Acu-Link.com,2014-02-03 06:22:00,
2014-02-03 00:37:00,12.6,9.0,30.12,South,180,2.7,-999.0,85,-99.99,,,0.00,Acu-Link.com,2014-02-03 06:37:00,
2014-02-03 00:53:00,12.2,8.6,30.12,South,180,5.8,-999.0,85,-99.99,,,0.00,Acu-Link.com,2014-02-03 06:53:00,
2014-02-03 01:08:00,12.2,8.6,30.12,SW,225,3.7,-999.0,85,-99.99,,,0.00,Acu-Link.com,2014-02-03 07:08:00,
2014-02-03 01:23:00,11.7,8.6,30.13,SW,225,1.7,-999.0,87,-99.99,,,0.00,Acu-Link.com,2014-02-03 07:23:00,
2014-02-03 01:38:00,10.6,7.5,30.13,SSE,157,1.7,-999.0,87,-99.99,,,0.00,Acu-Link.com,2014-02-03 07:38:00,
2014-02-03 01:54:00,10.2,7.4,30.12,SSW,202,2.7,-999.0,88,-99.99,,,0.00,Acu-Link.com,2014-02-03 07:54:00,
2014-02-03 02:09:00,10.2,7.4,30.12,SSW,202,2.2,-999.0,88,-99.99,,,0.00,Acu-Link.com,2014-02-03 08:09:00,
2014-02-03 02:24:00,9.0,6.2,30.13,WNW,292,0.0,-999.0,88,-99.99,,,0.00,Acu-Link.com,2014-02-03 08:24:00,
2014-02-03 02:39:00,8.1,5.8,30.14,NNW,337,0.0,-999.0,90,-99.99,,,0.00,Acu-Link.com,2014-02-03 08:39:00,
2014-02-03 02:54:00,7.3,4.8,30.14,SW,225,0.0,-999.0,89,-99.99,,,0.00,Acu-Link.com,2014-02-03 08:54:00,
2014-02-03 03:09:00,6.6,4.3,30.14,NNW,337,0.0,-999.0,90,-99.99,,,0.00,Acu-Link.com,2014-02-03 09:09:00,
2014-02-03 03:25:00,6.6,4.5,30.15,WSW,247,0.0,-999.0,91,-99.99,,,0.00,Acu-Link.com,2014-02-03 09:25:00,
2014-02-03 03:40:00,6.6,4.5,30.13,NNW,337,2.2,-999.0,91,-99.99,,,0.00,Acu-Link.com,2014-02-03 09:40:00,
2014-02-03 03:55:00,6.3,4.0,30.13,NNW,337,0.0,-999.0,90,-99.99,,,0.00,Acu-Link.com,2014-02-03 09:55:00,
2014-02-03 04:10:00,5.5,3.0,30.14,NNW,337,1.7,-999.0,89,-99.99,,,0.00,Acu-Link.com,2014-02-03 10:10:00,
2014-02-03 04:26:00,5.0,2.5,30.13,NNW,337,0.0,-999.0,89,-99.99,,,0.00,Acu-Link.com,2014-02-03 10:26:00,
2014-02-03 04:41:00,4.1,1.6,30.15,East,90,0.0,-999.0,89,-99.99,,,0.00,Acu-Link.com,2014-02-03 10:41:00,
2014-02-03 04:56:00,3.7,1.2,30.14,SSE,157,2.7,-999.0,89,-99.99,,,0.00,Acu-Link.com,2014-02-03 10:56:00,
2014-02-03 05:12:00,3.4,0.9,30.14,North,0,0.0,-999.0,89,-99.99,,,0.00,Acu-Link.com,2014-02-03 11:12:00,
2014-02-03 05:27:00,2.8,0.1,30.15,NNE,22,0.0,-999.0,88,-99.99,,,0.00,Acu-Link.com,2014-02-03 11:27:00,
2014-02-03 05:42:00,2.1,-0.6,30.14,ESE,112,0.0,-999.0,88,-99.99,,,0.00,Acu-Link.com,2014-02-03 11:42:00,
2014-02-03 05:57:00,1.8,-0.7,30.16,WNW,292,0.0,-999.0,89,-99.99,,,0.00,Acu-Link.com,2014-02-03 11:57:00,
2014-02-03 06:13:00,1.4,-1.3,30.16,NNE,22,0.0,-999.0,88,-99.99,,,0.00,Acu-Link.com,2014-02-03 12:13:00,
2014-02-03 06:28:00,1.2,-1.3,30.16,NNW,337,0.0,-999.0,89,-99.99,,,0.00,Acu-Link.com,2014-02-03 12:28:00,
2014-02-03 06:43:00,1.4,-1.1,30.16,WNW,292,0.0,-999.0,89,-99.99,,,0.00,Acu-Link.com,2014-02-03 12:43:00,
2014-02-03 06:59:00,1.2,-1.3,30.16,NNW,337,2.2,-999.0,89,-99.99,,,0.00,Acu-Link.com,2014-02-03 12:59:00,
2014-02-03 07:14:00,1.9,-0.3,30.16,NNW,337,2.7,-999.0,90,-99.99,,,0.00,Acu-Link.com,2014-02-03 13:14:00,
2014-02-03 07:29:00,2.1,-0.4,30.18,WNW,292,1.1,-999.0,89,-99.99,,,0.00,Acu-Link.com,2014-02-03 13:29:00,
2014-02-03 07:44:00,2.8,0.3,30.18,NNW,337,0.0,-999.0,89,-99.99,,,0.00,Acu-Link.com,2014-02-03 13:44:00,
2014-02-03 07:59:00,3.2,0.7,30.19,West,270,0.0,-999.0,89,-99.99,,,0.00,Acu-Link.com,2014-02-03 13:59:00,
2014-02-03 08:17:00,4.6,2.1,30.19,NW,315,1.7,-999.0,89,-99.99,,,0.00,Acu-Link.com,2014-02-03 14:17:00,
2014-02-03 08:32:00,6.4,3.6,30.18,NE,45,4.2,-999.0,88,-99.99,,,0.00,Acu-Link.com,2014-02-03 14:32:00,
2014-02-03 08:47:00,8.1,5.3,30.20,West,270,0.0,-999.0,88,-99.99,,,0.00,Acu-Link.com,2014-02-03 14:47:00,
2014-02-03 09:02:00,10.0,6.9,30.20,NNW,337,1.7,-999.0,87,-99.99,,,0.00,Acu-Link.com,2014-02-03 15:02:00,
2014-02-03 09:18:00,11.7,7.6,30.20,NE,45,2.2,-999.0,83,-99.99,,,0.00,Acu-Link.com,2014-02-03 15:18:00,
2014-02-03 09:33:00,13.8,8.8,30.20,NNE,22,3.7,-999.0,80,-99.99,,,0.00,Acu-Link.com,2014-02-03 15:33:00,
2014-02-03 09:48:00,13.5,8.2,30.20,NE,45,2.7,-999.0,79,-99.99,,,0.00,Acu-Link.com,2014-02-03 15:48:00,
2014-02-03 10:03:00,14.7,8.8,30.20,NNE,22,3.2,-999.0,77,-99.99,,,0.00,Acu-Link.com,2014-02-03 16:03:00,
2014-02-03 10:19:00,15.8,9.6,30.22,North,0,2.7,-999.0,76,-99.99,,,0.00,Acu-Link.com,2014-02-03 16:19:00,
2014-02-03 10:34:00,18.3,10.2,30.22,NNE,22,2.2,-999.0,70,-99.99,,,0.00,Acu-Link.com,2014-02-03 16:34:00,
2014-02-03 10:49:00,19.2,10.7,30.22,East,90,3.7,-999.0,69,-99.99,,,0.00,Acu-Link.com,2014-02-03 16:49:00,
2014-02-03 11:04:00,19.9,10.7,30.22,East,90,3.2,-999.0,67,-99.99,,,0.00,Acu-Link.com,2014-02-03 17:04:00,
2014-02-03 11:20:00,21.0,10.4,30.22,NE,45,3.7,-999.0,63,-99.99,,,0.00,Acu-Link.com,2014-02-03 17:20:00,
2014-02-03 11:35:00,21.6,10.6,30.22,SE,135,2.7,-999.0,62,-99.99,,,0.00,Acu-Link.com,2014-02-03 17:35:00,
2014-02-03 11:50:00,21.2,9.9,30.21,ESE,112,4.2,-999.0,61,-99.99,,,0.00,Acu-Link.com,2014-02-03 17:50:00,
2014-02-03 12:05:00,22.1,11.1,30.21,ESE,112,5.8,-999.0,62,-99.99,,,0.00,Acu-Link.com,2014-02-03 18:05:00,
2014-02-03 12:20:00,20.5,10.6,30.21,NE,45,5.3,-999.0,65,-99.99,,,0.00,Acu-Link.com,2014-02-03 18:20:00,
2014-02-03 12:36:00,20.8,10.6,30.20,North,0,3.2,-999.0,64,-99.99,,,0.00,Acu-Link.com,2014-02-03 18:36:00,
2014-02-03 12:51:00,21.2,11.0,30.19,NNW,337,3.2,-999.0,64,-99.99,,,0.00,Acu-Link.com,2014-02-03 18:51:00,
2014-02-03 13:06:00,20.8,10.6,30.19,East,90,3.7,-999.0,64,-99.99,,,0.00,Acu-Link.com,2014-02-03 19:06:00,
2014-02-03 13:22:00,20.5,11.0,30.19,NE,45,4.7,-999.0,66,-99.99,,,0.00,Acu-Link.com,2014-02-03 19:22:00,
2014-02-03 13:37:00,21.2,10.2,30.18,North,0,4.2,-999.0,62,-99.99,,,0.00,Acu-Link.com,2014-02-03 19:37:00,
2014-02-03 13:52:00,20.8,10.9,30.17,NNE,22,3.2,-999.0,65,-99.99,,,0.00,Acu-Link.com,2014-02-03 19:52:00,
2014-02-03 14:07:00,22.1,11.5,30.17,East,90,6.3,-999.0,63,-99.99,,,0.00,Acu-Link.com,2014-02-03 20:07:00,
2014-02-03 14:23:00,21.4,11.5,30.16,ESE,112,5.8,-999.0,65,-99.99,,,0.00,Acu-Link.com,2014-02-03 20:23:00,
2014-02-03 14:38:00,21.6,11.3,30.17,North,0,4.7,-999.0,64,-99.99,,,0.00,Acu-Link.com,2014-02-03 20:38:00,
2014-02-03 14:53:00,22.1,11.8,30.19,ENE,67,4.2,-999.0,64,-99.99,,,0.00,Acu-Link.com,2014-02-03 20:53:00,
2014-02-03 15:08:00,22.1,11.8,30.18,ESE,112,4.7,-999.0,64,-99.99,,,0.00,Acu-Link.com,2014-02-03 21:08:00,
2014-02-03 15:23:00,21.0,11.5,30.19,ESE,112,10.9,-999.0,66,-99.99,,,0.00,Acu-Link.com,2014-02-03 21:23:00,
2014-02-03 15:38:00,21.0,11.1,30.19,ESE,112,4.7,-999.0,65,-99.99,,,0.00,Acu-Link.com,2014-02-03 21:38:00,
2014-02-03 15:54:00,21.0,11.1,30.19,NNE,22,5.8,-999.0,65,-99.99,,,0.00,Acu-Link.com,2014-02-03 21:54:00,
2014-02-03 16:09:00,21.0,11.8,30.19,ESE,112,6.8,-999.0,67,-99.99,,,0.00,Acu-Link.com,2014-02-03 22:09:00,
2014-02-03 16:24:00,20.7,11.5,30.20,ESE,112,4.2,-999.0,67,-99.99,,,0.00,Acu-Link.com,2014-02-03 22:24:00,
2014-02-03 16:39:00,20.1,11.6,30.19,ESE,112,2.2,-999.0,69,-99.99,,,0.00,Acu-Link.com,2014-02-03 22:39:00,
2014-02-03 16:55:00,19.8,12.3,30.19,ESE,112,7.8,-999.0,72,-99.99,,,0.00,Acu-Link.com,2014-02-03 22:55:00,
2014-02-03 17:10:00,19.2,12.3,30.20,ESE,112,2.7,-999.0,74,-99.99,,,0.00,Acu-Link.com,2014-02-03 23:10:00,
2014-02-03 17:25:00,18.9,12.3,30.20,ESE,112,3.7,-999.0,75,-99.99,,,0.00,Acu-Link.com,2014-02-03 23:25:00,
2014-02-03 17:40:00,18.5,12.5,30.20,NNE,22,1.1,-999.0,77,-99.99,,,0.00,Acu-Link.com,2014-02-03 23:40:00,
2014-02-03 17:56:00,18.1,12.4,30.20,West,270,1.7,-999.0,78,-99.99,,,0.00,Acu-Link.com,2014-02-03 23:56:00,
2014-02-03 18:11:00,17.8,12.4,30.21,NE,45,1.7,-999.0,79,-99.99,,,0.00,Acu-Link.com,2014-02-04 00:11:00,
2014-02-03 18:26:00,17.1,11.7,30.20,NE,45,4.2,-999.0,79,-99.99,,,0.00,Acu-Link.com,2014-02-04 00:26:00,
2014-02-03 18:41:00,16.3,11.5,30.20,East,90,3.2,-999.0,81,-99.99,,,0.00,Acu-Link.com,2014-02-04 00:41:00,
2014-02-03 18:56:00,16.2,11.4,30.22,SW,225,0.0,-999.0,81,-99.99,,,0.00,Acu-Link.com,2014-02-04 00:56:00,
2014-02-03 19:12:00,16.0,11.5,30.22,East,90,4.7,-999.0,82,-99.99,,,0.00,Acu-Link.com,2014-02-04 01:12:00,
2014-02-03 19:27:00,15.6,11.1,30.23,SSE,157,3.2,-999.0,82,-99.99,,,0.00,Acu-Link.com,2014-02-04 01:27:00,
2014-02-03 19:42:00,15.6,11.1,30.23,ESE,112,2.7,-999.0,82,-99.99,,,0.00,Acu-Link.com,2014-02-04 01:42:00,
2014-02-03 19:57:00,15.4,10.9,30.23,ENE,67,1.7,-999.0,82,-99.99,,,0.00,Acu-Link.com,2014-02-04 01:57:00,
2014-02-03 20:13:00,15.3,10.8,30.24,NNE,22,4.2,-999.0,82,-99.99,,,0.00,Acu-Link.com,2014-02-04 02:13:00,
2014-02-03 20:28:00,14.9,10.4,30.25,ENE,67,2.2,-999.0,82,-99.99,,,0.00,Acu-Link.com,2014-02-04 02:28:00,
2014-02-03 20:43:00,14.4,10.5,30.24,West,270,4.2,-999.0,84,-99.99,,,0.00,Acu-Link.com,2014-02-04 02:43:00,
2014-02-03 20:58:00,13.8,10.1,30.24,East,90,5.3,-999.0,85,-99.99,,,0.00,Acu-Link.com,2014-02-04 02:58:00,
2014-02-03 21:14:00,13.5,9.8,30.26,ENE,67,3.2,-999.0,85,-99.99,,,0.00,Acu-Link.com,2014-02-04 03:14:00,
2014-02-03 21:29:00,12.7,9.1,30.25,NE,45,3.2,-999.0,85,-99.99,,,0.00,Acu-Link.com,2014-02-04 03:29:00,
2014-02-03 21:44:00,12.2,8.6,30.25,ENE,67,4.7,-999.0,85,-99.99,,,0.00,Acu-Link.com,2014-02-04 03:44:00,
2014-02-03 22:00:00,11.8,8.2,30.27,East,90,5.8,-999.0,85,-99.99,,,0.00,Acu-Link.com,2014-02-04 04:00:00,
2014-02-03 22:15:00,11.8,7.9,30.28,ENE,67,3.7,-999.0,84,-99.99,,,0.00,Acu-Link.com,2014-02-04 04:15:00,
2014-02-03 22:30:00,11.7,7.8,30.28,NNE,22,7.3,-999.0,84,-99.99,,,0.00,Acu-Link.com,2014-02-04 04:30:00,
2014-02-03 22:45:00,11.5,7.6,30.29,NE,45,1.7,-999.0,84,-99.99,,,0.00,Acu-Link.com,2014-02-04 04:45:00,
2014-02-03 23:00:00,11.5,7.6,30.29,North,0,3.7,-999.0,84,-99.99,,,0.00,Acu-Link.com,2014-02-04 05:00:00,
2014-02-03 23:16:00,11.5,7.4,30.30,NNW,337,3.2,-999.0,83,-99.99,,,0.00,Acu-Link.com,2014-02-04 05:16:00,
2014-02-03 23:31:00,11.7,7.8,30.30,ENE,67,2.7,-999.0,84,-99.99,,,0.00,Acu-Link.com,2014-02-04 05:31:00,
2014-02-03 23:46:00,11.7,7.8,30.31,West,270,2.7,-999.0,84,-99.99,,,0.00,Acu-Link.com,2014-02-04 05:46:00,